Russell Gardens, New York
Current Conditions -  °F | °C
As of 2:51 AM on Friday 28 Nov 2014 (Local Time) from KLGA Reporting Station
Few Clouds Few Clouds  
Wind Chill: 23°   Ceiling: Unl
Heat Index: 32°   Visibility: 10mi
Dew Point: 24°   Wind: 13mph
Humidity: 73%   Direction: 300°WNW
Pressure: 30.08"   Gusts: NA
Location:  40.786°N, 73.7291°W
Report Text: KLGA 280751Z 30011KT 10SM FEW150 00/M04 A3008 RMK AO2 SLP187 T00001044
Loading
Personal Weather Stations






























Interactive Weather Map New forecast layout! Learn more

10-Day Weather Forecast

Advertisements
Track Severe Weather on mobile